Time;durP1;ratioP1;P1;durP2;ratioP2;P2;SDS_P1;SDS_P2;PMS_P1;PMS_P2;Temp;Humidity;BMP_temperature;BMP_pressure;BME280_temperature;BME280_humidity;BME280_pressure;Samples;Min_cycle;Max_cycle;Signal;HPM_P1;HPM_P2
2020/12/18 00:01:30;;;;;;;5.50;3.47;;;3.00;99.90;;;;;;5061158;28;20036;-74
2020/12/18 00:03:56;;;;;;;7.10;4.05;;;3.10;99.90;;;;;;5073151;28;20056;-74
2020/12/18 00:06:24;;;;;;;7.88;4.53;;;3.00;99.90;;;;;;5055811;28;20507;-74
2020/12/18 00:08:52;;;;;;;7.03;4.20;;;3.00;99.90;;;;;;5061573;28;20028;-74
2020/12/18 00:11:23;;;;;;;5.88;3.65;;;3.20;99.90;;;;;;5056615;28;20037;-74
2020/12/18 00:13:50;;;;;;;7.35;4.30;;;3.20;99.90;;;;;;5053510;28;20032;-74
2020/12/18 00:16:17;;;;;;;6.65;3.47;;;3.30;99.90;;;;;;5052844;28;20388;-74
2020/12/18 00:18:43;;;;;;;8.07;4.30;;;3.20;99.90;;;;;;5056288;28;20024;-75
2020/12/18 00:21:09;;;;;;;7.05;4.00;;;3.00;99.90;;;;;;5057411;28;20029;-75
2020/12/18 00:23:34;;;;;;;8.15;3.92;;;2.80;99.90;;;;;;5051576;28;20092;-74
2020/12/18 00:26:00;;;;;;;7.53;4.90;;;2.80;99.90;;;;;;5053677;28;20035;-74
2020/12/18 00:28:26;;;;;;;9.15;4.03;;;3.10;99.90;;;;;;5053116;28;20103;-74
2020/12/18 00:30:52;;;;;;;7.55;4.57;;;3.10;99.90;;;;;;5060424;28;20123;-73
2020/12/18 00:33:17;;;;;;;9.18;3.85;;;3.00;99.90;;;;;;5052338;28;20040;-75
2020/12/18 00:35:44;;;;;;;8.02;4.18;;;2.70;99.90;;;;;;5063996;28;20104;-75
2020/12/18 00:38:10;;;;;;;9.40;4.53;;;2.80;99.90;;;;;;5071644;28;20063;-73
2020/12/18 00:40:36;;;;;;;8.73;4.72;;;2.90;99.90;;;;;;5067534;28;20028;-74
2020/12/18 00:43:01;;;;;;;9.95;4.28;;;3.10;99.90;;;;;;5072276;28;20033;-74
2020/12/18 00:45:27;;;;;;;6.45;3.95;;;3.10;99.90;;;;;;5067958;28;20032;-74
2020/12/18 00:47:53;;;;;;;8.30;4.63;;;3.10;99.90;;;;;;5072340;28;20052;-74
2020/12/18 00:50:18;;;;;;;7.85;4.45;;;3.30;99.90;;;;;;5059129;28;20487;-74
2020/12/18 00:52:44;;;;;;;6.35;3.45;;;3.30;99.90;;;;;;5052372;28;20028;-74
2020/12/18 00:55:10;;;;;;;6.90;4.40;;;3.20;99.90;;;;;;5059928;28;20024;-74
2020/12/18 00:57:35;;;;;;;7.15;4.30;;;3.20;99.90;;;;;;5072008;28;20020;-74
2020/12/18 01:00:01;;;;;;;8.43;4.68;;;3.10;99.90;;;;;;5069260;28;20510;-74
2020/12/18 01:02:27;;;;;;;6.65;4.75;;;3.10;99.90;;;;;;5071122;28;20390;-75
2020/12/18 01:04:52;;;;;;;8.07;4.90;;;3.20;99.90;;;;;;5069287;28;20052;-74
2020/12/18 01:07:18;;;;;;;9.43;4.25;;;3.40;99.90;;;;;;5072191;28;20048;-74
2020/12/18 01:09:44;;;;;;;8.20;4.68;;;3.20;99.90;;;;;;5066762;28;20057;-77
2020/12/18 01:12:13;;;;;;;7.30;4.50;;;3.20;99.90;;;;;;5071755;28;20382;-74
2020/12/18 01:14:39;;;;;;;8.32;4.38;;;3.30;99.90;;;;;;5068141;28;20032;-74
2020/12/18 01:17:05;;;;;;;7.95;4.32;;;3.30;99.90;;;;;;5051272;28;20049;-74
2020/12/18 01:19:31;;;;;;;8.80;4.60;;;3.20;99.90;;;;;;5052372;28;20399;-75
2020/12/18 01:21:56;;;;;;;10.25;5.65;;;3.20;99.90;;;;;;5055421;28;20020;-73
2020/12/18 01:24:22;;;;;;;6.70;4.20;;;3.30;99.90;;;;;;5052247;28;20029;-73
2020/12/18 01:26:48;;;;;;;6.47;4.65;;;3.00;99.90;;;;;;5057476;28;20060;-74
2020/12/18 01:29:14;;;;;;;7.30;3.83;;;2.90;99.90;;;;;;5051476;28;20151;-74
2020/12/18 01:31:41;;;;;;;7.68;4.22;;;2.80;99.90;;;;;;5058556;28;20083;-75
2020/12/18 01:34:07;;;;;;;7.55;3.78;;;2.80;99.90;;;;;;5051515;28;20056;-74
2020/12/18 01:36:32;;;;;;;7.00;3.90;;;2.70;99.90;;;;;;5069641;28;20556;-74
2020/12/18 01:38:59;;;;;;;7.47;3.80;;;2.90;99.90;;;;;;5071413;28;20032;-74
2020/12/18 01:41:25;;;;;;;8.10;3.70;;;2.90;99.90;;;;;;5059930;28;20020;-74
2020/12/18 01:43:51;;;;;;;9.98;5.18;;;2.90;99.90;;;;;;5071426;28;20090;-75
2020/12/18 01:46:19;;;;;;;9.30;5.15;;;2.80;99.90;;;;;;5057631;28;20025;-75
2020/12/18 01:48:46;;;;;;;21.88;10.48;;;2.60;99.90;;;;;;5070499;28;20024;-75
2020/12/18 01:51:13;;;;;;;18.17;7.45;;;2.60;99.90;;;;;;5056960;28;20037;-74
2020/12/18 01:53:40;;;;;;;13.75;6.13;;;2.60;99.90;;;;;;5071554;28;20034;-74
2020/12/18 01:56:08;;;;;;;7.03;3.83;;;2.50;99.90;;;;;;5056727;28;20021;-73
2020/12/18 01:58:41;;;;;;;6.07;3.22;;;2.50;99.90;;;;;;5069774;28;20487;-74
2020/12/18 02:01:08;;;;;;;6.22;3.05;;;2.60;99.90;;;;;;5056824;28;20492;-74
2020/12/18 02:03:35;;;;;;;7.60;4.00;;;2.60;99.90;;;;;;5069122;28;20029;-74
2020/12/18 02:06:17;;;;;;;8.15;4.22;;;2.60;99.90;;;;;;5057215;28;20033;-74
2020/12/18 02:08:44;;;;;;;7.25;4.05;;;2.70;99.90;;;;;;5050902;28;20109;-74
2020/12/18 02:11:12;;;;;;;6.18;3.55;;;2.70;99.90;;;;;;5065250;28;20052;-74
2020/12/18 02:13:38;;;;;;;7.25;3.67;;;2.80;99.90;;;;;;5055051;28;20476;-74
2020/12/18 02:16:04;;;;;;;6.38;3.22;;;2.80;99.90;;;;;;5065373;28;20029;-74
2020/12/18 02:18:31;;;;;;;6.57;3.45;;;2.70;99.90;;;;;;5061145;28;20053;-74
2020/12/18 02:20:57;;;;;;;8.90;5.28;;;2.50;99.90;;;;;;5070523;28;20036;-75
2020/12/18 02:23:22;;;;;;;7.07;3.80;;;2.60;99.90;;;;;;5064874;28;20021;-74
2020/12/18 02:26:07;;;;;;;8.70;4.22;;;2.60;99.90;;;;;;5062174;28;20047;-74
2020/12/18 02:28:36;;;;;;;6.10;3.42;;;2.70;99.90;;;;;;5072366;28;20107;-74
2020/12/18 02:31:02;;;;;;;8.85;5.25;;;2.70;99.90;;;;;;5059128;28;20502;-74
2020/12/18 02:33:30;;;;;;;7.72;3.90;;;2.80;99.90;;;;;;5061785;28;20020;-74
2020/12/18 02:35:56;;;;;;;7.43;3.95;;;2.90;99.90;;;;;;5060496;28;20497;-74
2020/12/18 02:38:22;;;;;;;5.82;3.63;;;2.70;99.90;;;;;;5054976;28;20036;-74
2020/12/18 02:40:47;;;;;;;5.43;2.97;;;2.50;99.90;;;;;;5063420;28;20037;-74
2020/12/18 02:43:13;;;;;;;6.03;3.88;;;2.50;99.90;;;;;;5070119;28;20033;-74
2020/12/18 02:45:39;;;;;;;5.75;3.83;;;2.70;99.90;;;;;;5055682;28;20207;-74
2020/12/18 02:48:05;;;;;;;7.10;4.20;;;2.50;99.90;;;;;;5053176;28;20032;-74
2020/12/18 02:50:30;;;;;;;6.93;3.85;;;2.40;99.90;;;;;;5070753;28;20040;-74
2020/12/18 02:52:56;;;;;;;6.30;3.45;;;2.40;99.90;;;;;;5074341;28;20020;-74
2020/12/18 02:55:22;;;;;;;7.03;3.38;;;2.50;99.90;;;;;;5064346;28;20031;-75
2020/12/18 02:57:47;;;;;;;9.18;5.47;;;2.70;99.90;;;;;;5074492;28;20031;-74
2020/12/18 03:00:13;;;;;;;8.95;4.95;;;2.60;99.90;;;;;;5070902;28;20059;-74
2020/12/18 03:02:39;;;;;;;8.00;4.47;;;2.50;99.90;;;;;;5073820;28;20040;-74
2020/12/18 03:05:04;;;;;;;9.05;5.05;;;2.30;99.90;;;;;;5069877;28;20040;-73
2020/12/18 03:07:30;;;;;;;7.38;4.60;;;2.40;99.90;;;;;;5073996;28;20029;-74
2020/12/18 03:09:56;;;;;;;9.35;5.10;;;2.30;99.90;;;;;;5064784;28;20049;-74
2020/12/18 03:12:21;;;;;;;7.90;4.13;;;2.40;99.90;;;;;;5054305;28;20029;-74
2020/12/18 03:14:47;;;;;;;6.60;4.63;;;2.60;99.90;;;;;;5054835;28;20078;-74
2020/12/18 03:17:13;;;;;;;10.55;5.03;;;2.60;99.90;;;;;;5054121;28;20129;-74
2020/12/18 03:19:38;;;;;;;8.40;4.25;;;2.60;99.90;;;;;;5054778;28;20025;-74
2020/12/18 03:22:04;;;;;;;6.38;3.65;;;2.70;99.90;;;;;;5054033;28;20029;-74
2020/12/18 03:24:30;;;;;;;6.10;3.38;;;2.80;99.90;;;;;;5053760;28;20387;-74
2020/12/18 03:26:55;;;;;;;6.35;3.78;;;2.80;99.90;;;;;;5063851;28;20078;-74
2020/12/18 03:29:21;;;;;;;9.15;4.13;;;2.70;99.90;;;;;;5071275;28;20037;-74
2020/12/18 03:31:46;;;;;;;8.15;4.75;;;2.60;99.90;;;;;;5071925;28;20391;-74
2020/12/18 03:34:12;;;;;;;10.27;5.30;;;2.60;99.90;;;;;;5072709;28;20558;-73
2020/12/18 03:36:38;;;;;;;9.95;5.53;;;2.40;99.90;;;;;;5072259;28;20028;-74
2020/12/18 03:39:07;;;;;;;7.70;4.13;;;2.20;99.90;;;;;;5073600;28;20052;-74
2020/12/18 03:41:34;;;;;;;6.43;3.92;;;2.20;99.90;;;;;;5068544;28;20025;-74
2020/12/18 03:43:59;;;;;;;8.50;4.15;;;2.20;99.90;;;;;;5061499;28;20021;-73
2020/12/18 03:46:25;;;;;;;7.13;3.67;;;2.10;99.90;;;;;;5056457;28;20024;-74
2020/12/18 03:48:51;;;;;;;7.50;3.70;;;2.30;99.90;;;;;;5053500;28;20037;-74
2020/12/18 03:51:16;;;;;;;6.57;3.83;;;2.50;99.90;;;;;;5063574;28;20478;-74
2020/12/18 03:53:42;;;;;;;8.50;5.05;;;2.40;99.90;;;;;;5053734;28;20028;-74
2020/12/18 03:56:08;;;;;;;8.45;4.93;;;2.50;99.90;;;;;;5057513;28;20028;-73
2020/12/18 03:58:33;;;;;;;7.53;4.60;;;2.70;99.90;;;;;;5053673;28;20083;-74
2020/12/18 04:00:59;;;;;;;5.45;3.10;;;2.60;99.90;;;;;;5063108;28;20522;-73
2020/12/18 04:03:24;;;;;;;7.85;3.33;;;2.60;99.90;;;;;;5059615;28;20021;-75
2020/12/18 04:05:50;;;;;;;5.88;3.17;;;2.40;99.90;;;;;;5054535;28;20120;-74
2020/12/18 04:08:17;;;;;;;5.75;3.80;;;2.40;99.90;;;;;;5065186;28;20027;-74
2020/12/18 04:10:43;;;;;;;8.18;5.07;;;2.40;99.90;;;;;;5056924;28;20037;-74
2020/12/18 04:13:09;;;;;;;8.63;4.88;;;2.40;99.90;;;;;;5045677;28;20049;-74
2020/12/18 04:15:34;;;;;;;8.23;4.28;;;2.80;99.90;;;;;;5052002;28;20032;-75
2020/12/18 04:18:00;;;;;;;6.35;4.10;;;2.70;99.90;;;;;;5059198;28;20429;-75
2020/12/18 04:20:26;;;;;;;9.65;3.65;;;2.80;99.90;;;;;;5050863;28;20530;-74
2020/12/18 04:22:51;;;;;;;7.15;2.88;;;2.70;99.90;;;;;;5063186;28;20089;-74
2020/12/18 04:25:17;;;;;;;5.93;3.28;;;2.50;99.90;;;;;;5061222;28;20028;-75
2020/12/18 04:27:42;;;;;;;5.72;3.65;;;2.50;99.90;;;;;;5058589;28;20032;-74
2020/12/18 04:30:08;;;;;;;8.35;3.45;;;2.40;99.90;;;;;;5062746;28;20406;-74
2020/12/18 04:32:34;;;;;;;6.82;3.53;;;2.60;99.90;;;;;;5053036;28;20036;-74
2020/12/18 04:35:00;;;;;;;6.72;3.97;;;2.60;99.90;;;;;;5062829;28;20097;-74
2020/12/18 04:37:25;;;;;;;6.25;3.28;;;2.30;99.90;;;;;;5054082;28;20567;-74
2020/12/18 04:39:51;;;;;;;6.38;3.75;;;2.40;99.90;;;;;;5063296;28;20032;-74
2020/12/18 04:42:19;;;;;;;6.45;3.47;;;2.40;99.90;;;;;;5048753;28;20025;-75
2020/12/18 04:44:46;;;;;;;4.63;2.83;;;2.30;99.90;;;;;;5063880;28;20622;-75
2020/12/18 04:47:14;;;;;;;7.13;3.78;;;2.40;99.90;;;;;;5059502;28;20142;-75
2020/12/18 04:49:41;;;;;;;8.82;4.35;;;2.30;99.90;;;;;;5043434;28;20215;-74
2020/12/18 04:52:11;;;;;;;9.02;4.38;;;2.10;99.90;;;;;;5061343;28;20017;-76
2020/12/18 04:54:41;;;;;;;5.70;3.35;;;1.90;99.90;;;;;;5064309;28;20539;-75
2020/12/18 04:57:07;;;;;;;5.28;2.92;;;1.80;99.90;;;;;;5047735;28;20132;-76
2020/12/18 04:59:34;;;;;;;6.25;3.40;;;1.80;99.90;;;;;;5064277;28;20028;-75
2020/12/18 05:02:00;;;;;;;9.15;4.05;;;1.70;99.90;;;;;;5046008;28;20546;-75
2020/12/18 05:04:28;;;;;;;6.07;3.13;;;2.00;99.90;;;;;;5052647;28;20029;-75
2020/12/18 05:06:55;;;;;;;4.43;2.65;;;2.10;99.90;;;;;;5044671;28;20044;-75
2020/12/18 05:09:24;;;;;;;6.65;3.95;;;2.20;99.90;;;;;;5054917;28;20029;-75
2020/12/18 05:11:52;;;;;;;8.43;4.05;;;2.50;99.90;;;;;;5044418;28;20060;-75
2020/12/18 05:14:18;;;;;;;8.30;4.28;;;2.60;99.90;;;;;;5049826;28;20100;-75
2020/12/18 05:16:46;;;;;;;11.40;3.97;;;2.50;99.90;;;;;;5044066;28;20059;-75
2020/12/18 05:19:12;;;;;;;8.80;4.32;;;2.20;99.90;;;;;;5046573;28;20094;-75
2020/12/18 05:21:39;;;;;;;6.18;3.95;;;2.00;99.90;;;;;;5063339;28;20020;-74
2020/12/18 05:24:04;;;;;;;4.70;3.17;;;1.80;99.90;;;;;;5059156;28;20198;-75
2020/12/18 05:26:30;;;;;;;6.43;3.13;;;1.70;99.90;;;;;;5064491;28;20511;-74
2020/12/18 05:29:10;;;;;;;6.20;3.70;;;1.80;99.90;;;;;;5050773;28;20032;-74
2020/12/18 05:31:35;;;;;;;9.00;4.22;;;1.80;99.90;;;;;;5044214;28;20125;-74
2020/12/18 05:34:03;;;;;;;5.32;3.45;;;1.90;99.90;;;;;;5054947;28;20116;-74
2020/12/18 05:36:29;;;;;;;8.63;3.95;;;2.10;99.90;;;;;;5044333;28;20037;-75
2020/12/18 05:38:55;;;;;;;6.03;3.47;;;2.30;99.90;;;;;;5055514;28;20116;-74
2020/12/18 05:41:25;;;;;;;6.28;3.88;;;2.60;99.90;;;;;;5063049;28;20027;-74
2020/12/18 05:43:52;;;;;;;12.10;5.78;;;2.50;99.90;;;;;;5054346;28;20076;-74
2020/12/18 05:46:25;;;;;;;6.32;4.60;;;2.10;99.90;;;;;;5045156;28;20051;-75
2020/12/18 05:49:04;;;;;;;8.05;4.07;;;2.20;99.90;;;;;;5044940;28;20119;-74
2020/12/18 05:51:30;;;;;;;6.38;3.88;;;2.10;99.90;;;;;;5042762;28;20075;-75
2020/12/18 05:54:09;;;;;;;7.18;3.65;;;2.00;99.90;;;;;;5044891;28;20053;-74
2020/12/18 05:56:35;;;;;;;6.63;3.60;;;2.00;99.90;;;;;;5057084;28;20040;-75
2020/12/18 05:59:06;;;;;;;7.53;4.20;;;1.90;99.90;;;;;;5043660;28;20025;-74
2020/12/18 06:01:32;;;;;;;8.00;3.90;;;2.00;99.90;;;;;;5046331;28;20020;-74
2020/12/18 06:04:08;;;;;;;7.30;4.03;;;2.10;99.90;;;;;;5062943;28;20051;-74
2020/12/18 06:06:35;;;;;;;9.80;4.00;;;2.30;99.90;;;;;;5053473;28;20059;-73
2020/12/18 06:09:02;;;;;;;7.50;3.33;;;2.10;99.90;;;;;;5066267;28;20024;-73
2020/12/18 06:11:31;;;;;;;6.45;3.70;;;2.20;99.90;;;;;;5047589;28;20499;-74
2020/12/18 06:13:59;;;;;;;5.55;3.22;;;2.20;99.90;;;;;;5055893;28;21019;-73
2020/12/18 06:16:28;;;;;;;9.82;4.63;;;2.20;99.90;;;;;;5044388;28;20033;-74
2020/12/18 06:19:03;;;;;;;6.45;3.25;;;2.70;99.90;;;;;;5043522;28;20104;-73
2020/12/18 06:21:29;;;;;;;7.47;3.97;;;2.40;99.90;;;;;;5059095;28;20033;-73
2020/12/18 06:23:55;;;;;;;7.43;3.53;;;2.50;99.90;;;;;;5054779;28;20032;-73
2020/12/18 06:26:21;;;;;;;7.55;3.85;;;2.30;99.90;;;;;;5041807;28;20493;-73
2020/12/18 06:28:47;;;;;;;8.02;3.70;;;2.10;99.90;;;;;;5041819;28;20577;-72
2020/12/18 06:31:33;;;;;;;6.47;3.60;;;2.10;99.90;;;;;;5041643;28;20044;-73
2020/12/18 06:34:03;;;;;;;6.93;3.13;;;2.20;99.90;;;;;;5042294;28;20025;-73
2020/12/18 06:37:00;;;;;;;7.80;3.80;;;2.10;99.90;;;;;;5061922;28;20024;-73
2020/12/18 06:39:32;;;;;;;10.13;4.45;;;2.00;99.90;;;;;;5050324;28;20051;-73
2020/12/18 06:42:22;;;;;;;10.05;4.97;;;2.00;99.90;;;;;;5063416;28;20120;-73
2020/12/18 06:44:49;;;;;;;9.77;4.90;;;2.20;99.90;;;;;;5058610;28;20029;-73
2020/12/18 06:47:24;;;;;;;7.35;4.15;;;2.20;99.90;;;;;;5043432;28;20029;-73
2020/12/18 06:49:56;;;;;;;8.50;5.28;;;2.10;99.90;;;;;;5043627;28;20033;-73
2020/12/18 06:52:44;;;;;;;13.18;5.78;;;1.90;99.90;;;;;;5043065;28;20040;-73
2020/12/18 06:55:12;;;;;;;7.82;5.22;;;1.70;99.90;;;;;;5046969;28;20082;-73
2020/12/18 06:57:39;;;;;;;9.07;4.53;;;1.50;99.90;;;;;;5066090;28;20063;-72
2020/12/18 07:00:27;;;;;;;7.00;4.40;;;1.50;99.90;;;;;;5066535;28;20489;-72
2020/12/18 07:02:52;;;;;;;7.82;4.75;;;1.70;99.90;;;;;;5064940;28;20029;-72
2020/12/18 07:05:41;;;;;;;7.85;4.05;;;1.80;99.90;;;;;;5064379;28;20507;-73
2020/12/18 07:08:09;;;;;;;8.32;4.40;;;1.90;99.90;;;;;;5046751;28;20249;-72
2020/12/18 07:10:42;;;;;;;9.95;5.00;;;1.80;99.90;;;;;;5046929;28;20043;-72
2020/12/18 07:13:12;;;;;;;7.22;4.25;;;1.90;99.90;;;;;;5046382;28;20373;-74
2020/12/18 07:15:46;;;;;;;10.32;4.15;;;1.80;99.90;;;;;;5047379;28;20032;-72
2020/12/18 07:18:26;;;;;;;9.38;5.03;;;1.80;99.90;;;;;;5049630;28;20056;-72
2020/12/18 07:20:54;;;;;;;11.43;5.10;;;1.80;99.90;;;;;;5059101;28;20482;-72
2020/12/18 07:23:22;;;;;;;8.63;4.97;;;1.70;99.90;;;;;;5065510;28;21907;-72
2020/12/18 07:25:48;;;;;;;7.45;4.55;;;1.60;99.90;;;;;;5065920;28;20595;-72
2020/12/18 07:28:15;;;;;;;7.18;4.38;;;1.80;99.90;;;;;;5065847;28;20028;-73
2020/12/18 07:30:43;;;;;;;8.68;3.90;;;1.80;99.90;;;;;;5057409;28;20132;-72
2020/12/18 07:33:10;;;;;;;7.90;4.30;;;1.90;99.90;;;;;;5045743;28;20032;-72
2020/12/18 07:35:41;;;;;;;6.90;3.72;;;1.90;99.90;;;;;;5045833;28;20094;-73
2020/12/18 07:38:12;;;;;;;8.85;4.25;;;1.80;99.90;;;;;;5045653;28;20032;-73
2020/12/18 07:40:38;;;;;;;6.65;3.88;;;1.90;99.90;;;;;;5050039;28;20032;-72
2020/12/18 07:43:08;;;;;;;5.18;3.25;;;1.90;99.90;;;;;;5048412;28;20025;-73
2020/12/18 07:45:41;;;;;;;6.75;3.58;;;1.90;99.90;;;;;;5046709;28;20044;-73
2020/12/18 07:48:11;;;;;;;5.60;3.08;;;1.90;99.90;;;;;;5045327;28;20029;-72
2020/12/18 07:50:37;;;;;;;7.85;3.25;;;2.00;99.90;;;;;;5045464;28;20039;-72
2020/12/18 07:53:07;;;;;;;6.40;3.50;;;1.90;99.90;;;;;;5045317;28;20029;-73
2020/12/18 07:55:33;;;;;;;8.63;4.63;;;1.90;99.90;;;;;;5045493;28;20021;-73
2020/12/18 07:57:59;;;;;;;7.03;4.03;;;2.20;99.90;;;;;;5045205;28;20055;-72
2020/12/18 08:00:24;;;;;;;13.32;3.75;;;2.30;99.90;;;;;;5045635;28;20111;-72
2020/12/18 08:02:50;;;;;;;7.30;4.00;;;2.20;99.90;;;;;;5052342;28;20032;-72
2020/12/18 08:05:22;;;;;;;6.00;3.10;;;2.20;99.90;;;;;;5064754;28;20031;-72
2020/12/18 08:07:58;;;;;;;6.82;3.75;;;2.10;99.90;;;;;;5065223;28;20375;-73
2020/12/18 08:10:23;;;;;;;7.35;4.00;;;2.10;99.90;;;;;;5065068;28;20032;-72
2020/12/18 08:12:51;;;;;;;8.65;4.22;;;2.10;99.90;;;;;;5058176;28;20036;-71
2020/12/18 08:15:16;;;;;;;7.35;4.20;;;2.20;99.90;;;;;;5044173;28;20029;-73
2020/12/18 08:17:44;;;;;;;11.98;5.43;;;2.20;99.90;;;;;;5044871;28;20136;-72
2020/12/18 08:20:14;;;;;;;7.28;4.57;;;2.10;99.90;;;;;;5045113;28;20031;-72
2020/12/18 08:22:44;;;;;;;8.57;4.28;;;2.10;99.90;;;;;;5061893;28;20311;-72
2020/12/18 08:25:12;;;;;;;8.13;4.55;;;2.20;99.90;;;;;;5043294;28;20029;-72
2020/12/18 08:27:50;;;;;;;8.70;4.85;;;2.10;99.90;;;;;;5043923;28;20211;-72
2020/12/18 08:30:21;;;;;;;6.25;4.25;;;2.10;99.90;;;;;;5043165;28;20434;-72
2020/12/18 08:32:53;;;;;;;10.40;5.63;;;2.10;99.90;;;;;;5043311;28;20025;-74
2020/12/18 08:35:21;;;;;;;9.38;4.95;;;2.50;99.90;;;;;;5044550;28;20033;-74
2020/12/18 08:37:48;;;;;;;8.85;5.03;;;2.60;99.90;;;;;;5043740;28;20110;-74
2020/12/18 08:40:23;;;;;;;9.52;4.85;;;2.40;99.90;;;;;;5047850;28;20390;-73
2020/12/18 08:43:02;;;;;;;8.93;5.03;;;2.10;99.90;;;;;;5060537;28;20021;-74
2020/12/18 08:45:29;;;;;;;8.80;4.65;;;1.90;99.90;;;;;;5044115;28;20020;-73
2020/12/18 08:47:56;;;;;;;10.25;5.18;;;1.80;99.90;;;;;;5044731;28;20033;-73
2020/12/18 08:50:22;;;;;;;8.45;5.03;;;2.10;99.90;;;;;;5044340;28;20029;-73
2020/12/18 08:52:48;;;;;;;10.80;5.70;;;2.20;99.90;;;;;;5044375;28;20495;-73
2020/12/18 08:55:15;;;;;;;9.10;4.60;;;2.20;99.90;;;;;;5059561;28;20031;-74
2020/12/18 08:57:41;;;;;;;7.13;4.25;;;2.20;99.90;;;;;;5045139;28;20040;-73
2020/12/18 09:00:17;;;;;;;8.48;4.18;;;2.20;99.90;;;;;;5044594;28;20020;-73
2020/12/18 09:02:49;;;;;;;6.20;3.90;;;2.40;99.90;;;;;;5044634;28;20017;-73
2020/12/18 09:05:42;;;;;;;10.02;4.00;;;2.40;99.90;;;;;;5045846;28;20860;-72
2020/12/18 09:08:21;;;;;;;7.50;4.32;;;2.40;99.90;;;;;;5064242;28;20020;-72
2020/12/18 09:10:59;;;;;;;8.32;5.40;;;2.40;99.90;;;;;;5061987;28;20045;-72
2020/12/18 09:13:29;;;;;;;8.00;4.30;;;2.10;99.90;;;;;;5064251;28;20123;-73
2020/12/18 09:16:00;;;;;;;10.85;5.68;;;2.10;99.90;;;;;;5064516;28;20032;-72
2020/12/18 09:18:31;;;;;;;9.50;5.43;;;2.20;99.90;;;;;;5063993;28;20040;-73
2020/12/18 09:21:09;;;;;;;8.95;5.28;;;2.20;99.90;;;;;;5056083;28;20522;-72
2020/12/18 09:23:36;;;;;;;8.18;5.30;;;2.20;99.90;;;;;;5044760;28;20021;-73
2020/12/18 09:26:03;;;;;;;10.77;5.15;;;2.10;99.90;;;;;;5043938;28;20344;-72
2020/12/18 09:28:36;;;;;;;9.88;5.05;;;2.20;99.90;;;;;;5044096;28;20029;-72
2020/12/18 09:31:03;;;;;;;7.60;4.57;;;2.30;99.90;;;;;;5044088;28;20036;-73
2020/12/18 09:33:48;;;;;;;7.35;4.22;;;2.30;99.90;;;;;;5044298;28;20029;-73
2020/12/18 09:36:16;;;;;;;;;;;2.40;99.90;;;;;;5044531;28;20021;-72
2020/12/18 09:38:47;;;;;;;8.30;4.53;;;2.40;99.90;;;;;;5044626;28;19908;-72
2020/12/18 09:41:21;;;;;;;9.70;4.30;;;2.40;99.90;;;;;;5046446;28;20025;-73
2020/12/18 09:43:50;;;;;;;8.37;4.47;;;2.40;99.90;;;;;;5064273;28;20146;-74
2020/12/18 09:46:18;;;;;;;8.45;4.32;;;2.40;99.90;;;;;;5063872;28;20028;-73
2020/12/18 09:48:47;;;;;;;6.97;4.38;;;2.40;99.90;;;;;;5064085;28;20056;-72
2020/12/18 09:51:15;;;;;;;8.07;4.82;;;2.70;99.90;;;;;;5062525;28;20040;-72
2020/12/18 09:53:41;;;;;;;7.55;4.28;;;2.90;99.90;;;;;;5044326;28;20017;-72
2020/12/18 09:56:08;;;;;;;5.93;3.88;;;2.80;99.90;;;;;;5042721;28;20017;-73
2020/12/18 09:58:34;;;;;;;11.95;4.72;;;2.80;99.90;;;;;;5043816;28;20124;-72
2020/12/18 10:01:00;;;;;;;8.45;4.63;;;2.70;99.90;;;;;;5043729;28;20637;-73
2020/12/18 10:03:26;;;;;;;8.55;5.20;;;2.70;99.90;;;;;;5058811;28;20394;-73
2020/12/18 10:05:51;;;;;;;6.53;4.57;;;2.80;99.90;;;;;;5063892;28;20036;-73
2020/12/18 10:08:18;;;;;;;8.55;4.60;;;2.80;99.90;;;;;;5063995;28;20035;-73
2020/12/18 10:10:44;;;;;;;8.15;4.47;;;2.80;99.90;;;;;;5063847;28;20039;-72
2020/12/18 10:13:10;;;;;;;7.75;4.57;;;2.70;99.90;;;;;;5052210;28;20625;-72
2020/12/18 10:15:36;;;;;;;8.98;5.10;;;2.80;99.90;;;;;;5043838;28;20055;-72
2020/12/18 10:18:02;;;;;;;7.28;4.25;;;2.80;99.90;;;;;;5043462;28;20060;-72
2020/12/18 10:20:28;;;;;;;7.93;4.25;;;2.90;99.90;;;;;;5043380;28;20029;-73
2020/12/18 10:22:54;;;;;;;12.18;6.82;;;3.00;99.90;;;;;;5046034;28;20035;-73
2020/12/18 10:25:23;;;;;;;8.73;3.95;;;2.90;99.90;;;;;;5062950;28;20095;-73
2020/12/18 10:27:49;;;;;;;8.48;3.88;;;3.00;99.90;;;;;;5061860;28;20039;-73
2020/12/18 10:30:15;;;;;;;7.45;4.13;;;3.10;99.90;;;;;;5061497;28;20120;-72
2020/12/18 10:32:42;;;;;;;5.85;3.72;;;3.20;99.90;;;;;;5061084;28;20020;-73
2020/12/18 10:35:11;;;;;;;7.18;4.30;;;3.20;99.90;;;;;;5061567;28;20017;-73
2020/12/18 10:37:37;;;;;;;7.15;3.75;;;3.30;99.90;;;;;;5064118;28;20028;-73
2020/12/18 10:40:07;;;;;;;7.07;3.42;;;3.30;99.90;;;;;;5065460;28;20040;-73
2020/12/18 10:42:33;;;;;;;6.93;3.78;;;3.40;99.90;;;;;;5066987;28;20036;-73
2020/12/18 10:45:02;;;;;;;6.90;3.70;;;3.40;99.90;;;;;;5055833;28;20028;-73
2020/12/18 10:47:28;;;;;;;9.00;4.25;;;3.40;99.90;;;;;;5067069;28;20020;-73
2020/12/18 10:49:54;;;;;;;7.80;3.78;;;3.40;99.90;;;;;;5066666;28;20442;-72
2020/12/18 10:52:21;;;;;;;8.70;4.90;;;3.40;99.90;;;;;;5066824;28;20023;-73
2020/12/18 10:54:47;;;;;;;6.63;3.67;;;3.50;99.90;;;;;;5066572;28;20024;-73
2020/12/18 10:57:13;;;;;;;8.27;4.47;;;3.50;99.90;;;;;;5047716;28;20094;-73
2020/12/18 10:59:39;;;;;;;7.18;4.95;;;3.70;99.90;;;;;;5047400;28;20430;-73
2020/12/18 11:02:05;;;;;;;8.93;4.72;;;3.80;99.90;;;;;;5046933;28;20029;-74
2020/12/18 11:04:31;;;;;;;10.07;5.47;;;3.90;99.90;;;;;;5047110;28;20033;-73
2020/12/18 11:06:57;;;;;;;9.32;4.82;;;4.00;99.90;;;;;;5046934;28;20668;-73
2020/12/18 11:09:23;;;;;;;7.65;4.75;;;4.10;99.90;;;;;;5065503;28;20044;-73
2020/12/18 11:11:54;;;;;;;9.82;4.63;;;4.10;99.90;;;;;;5066786;28;20032;-74
2020/12/18 11:14:21;;;;;;;6.72;4.18;;;4.30;99.90;;;;;;5066728;28;20021;-73
2020/12/18 11:16:47;;;;;;;6.90;3.83;;;4.30;99.90;;;;;;5065923;28;20515;-73
2020/12/18 11:19:13;;;;;;;7.03;4.10;;;4.60;99.90;;;;;;5052321;28;21112;-73
2020/12/18 11:21:43;;;;;;;11.75;5.55;;;4.90;99.90;;;;;;5047907;28;20028;-73
2020/12/18 11:24:09;;;;;;;9.05;5.40;;;4.80;99.90;;;;;;5046621;28;20029;-74
2020/12/18 11:26:35;;;;;;;12.18;6.75;;;4.70;99.90;;;;;;5046484;28;20108;-73
2020/12/18 11:29:00;;;;;;;9.00;5.90;;;4.90;99.90;;;;;;5046497;28;20128;-73
2020/12/18 11:31:26;;;;;;;9.35;5.47;;;4.90;99.90;;;;;;5055319;28;20501;-73
2020/12/18 11:33:51;;;;;;;9.55;7.05;;;5.00;99.90;;;;;;5066452;28;20032;-73
2020/12/18 11:36:17;;;;;;;13.45;7.63;;;5.00;99.90;;;;;;5066158;28;20070;-73
2020/12/18 11:38:43;;;;;;;12.05;5.40;;;5.00;99.90;;;;;;5066219;28;20040;-74
2020/12/18 11:41:08;;;;;;;10.82;6.00;;;4.90;99.90;;;;;;5062086;28;20040;-74
2020/12/18 11:43:35;;;;;;;13.10;8.40;;;5.10;99.90;;;;;;5047356;28;20130;-75
2020/12/18 11:46:02;;;;;;;12.25;6.70;;;5.30;99.90;;;;;;5046106;28;20032;-74
2020/12/18 11:48:29;;;;;;;9.05;5.13;;;5.40;99.90;;;;;;5046382;28;20117;-74
2020/12/18 11:50:56;;;;;;;10.00;5.40;;;5.40;99.90;;;;;;5046061;28;20029;-73
2020/12/18 11:53:21;;;;;;;8.20;5.43;;;5.30;99.90;;;;;;5052466;28;20051;-73
2020/12/18 11:55:47;;;;;;;9.95;7.57;;;5.40;99.90;;;;;;5066153;28;20947;-73
2020/12/18 11:58:13;;;;;;;9.95;5.22;;;5.50;99.90;;;;;;5065732;28;20540;-73
2020/12/18 12:00:38;;;;;;;8.05;4.90;;;5.40;99.90;;;;;;5066270;28;20048;-73
2020/12/18 12:03:04;;;;;;;10.43;6.07;;;5.50;99.90;;;;;;5065077;28;20237;-73
2020/12/18 12:05:30;;;;;;;8.57;4.70;;;5.60;99.90;;;;;;5045988;28;20395;-73
2020/12/18 12:07:56;;;;;;;7.38;4.45;;;5.60;99.90;;;;;;5045671;28;20071;-73
2020/12/18 12:10:21;;;;;;;9.95;5.90;;;5.60;99.90;;;;;;5045598;28;20483;-73
2020/12/18 12:12:47;;;;;;;8.60;4.75;;;5.80;99.90;;;;;;5046292;28;21003;-73
2020/12/18 12:15:16;;;;;;;6.60;4.25;;;5.80;99.90;;;;;;5047189;28;20104;-74
2020/12/18 12:17:41;;;;;;;9.00;4.47;;;5.80;99.90;;;;;;5045475;28;20065;-73
2020/12/18 12:20:07;;;;;;;7.72;4.88;;;5.70;99.90;;;;;;5045685;28;20025;-73
2020/12/18 12:22:33;;;;;;;10.45;5.57;;;5.80;99.90;;;;;;5047828;28;20100;-74
2020/12/18 12:24:58;;;;;;;9.55;4.88;;;5.80;99.90;;;;;;5044855;28;20027;-74
2020/12/18 12:27:26;;;;;;;7.65;4.60;;;5.80;99.90;;;;;;5044177;28;20483;-74
2020/12/18 12:29:53;;;;;;;7.63;4.43;;;5.90;99.90;;;;;;5045076;28;20731;-74
2020/12/18 12:32:19;;;;;;;8.88;4.95;;;5.90;99.90;;;;;;5058441;28;20059;-73
2020/12/18 12:34:45;;;;;;;10.60;5.05;;;6.00;99.90;;;;;;5046100;28;20028;-73
2020/12/18 12:37:11;;;;;;;9.20;5.10;;;6.20;99.90;;;;;;5044598;28;20562;-74
2020/12/18 12:39:38;;;;;;;7.28;4.55;;;6.30;99.90;;;;;;5045590;28;20040;-73
2020/12/18 12:42:04;;;;;;;7.53;4.80;;;6.30;99.90;;;;;;5044499;28;20025;-73
2020/12/18 12:44:30;;;;;;;7.63;4.88;;;6.20;99.90;;;;;;5044712;28;20036;-73
2020/12/18 12:46:56;;;;;;;6.40;3.60;;;6.10;99.90;;;;;;5044981;28;20100;-73
2020/12/18 12:49:22;;;;;;;7.20;4.72;;;6.00;99.90;;;;;;5053050;28;20028;-74
2020/12/18 12:51:48;;;;;;;7.53;4.57;;;6.00;99.90;;;;;;5045040;28;20086;-73
2020/12/18 12:54:14;;;;;;;9.55;5.05;;;5.90;99.90;;;;;;5044223;28;20383;-73
2020/12/18 12:56:41;;;;;;;12.52;4.82;;;5.90;99.90;;;;;;5044812;28;20884;-74
2020/12/18 12:59:06;;;;;;;8.13;4.70;;;5.90;99.90;;;;;;5044249;28;20333;-73